San Juan, PR (00917)

8:33 PM AST on August 19, 2017 (GMT -0400)
El Vedado, Hato Rey | | Change Station

Elev 30 ft 18.42 °N, 66.06 °W | Updated 33 seconds ago

Mostly Cloudy
Mostly Cloudy
80.2 °F
Feels Like 87 °F
N
0.0
Wind Variable Wind from South

Today
High -- | Low -- °F
--% Chance of Precip.
Yesterday
High -- | Low -- °F
Precip. -- in
Pressure 29.89 in
Visibility 6.0 miles
Clouds Scattered Clouds 1700 ft
Scattered Clouds 2300 ft
Overcast 3400 ft
Heat Index 87 °F
Dew Point 78 °F
Humidity 93%
Rainfall 1.19 in
Snow Depth Not available.
6:07 AM 6:48 PM
Waning Crescent, 4% visible
METAR TJSJ 192356Z 06012KT 6SM RA BR SCT017 SCT023 OVC034 27/26 A2989 RMK AO2 RAB46 SLP120 P0002 60002 T02720256 10311 20272 53007
Pressure 29.89 in
Visibility 6.0 miles
Clouds Scattered Clouds 1700 ft
Scattered Clouds 2300 ft
Overcast 3400 ft
Heat Index 87 °F
Dew Point 78 °F
Humidity 93%
Rainfall 1.19 in
Snow Depth Not available.
6:07 AM 6:48 PM
Waning Crescent, 4% visible
METAR TJSJ 192356Z 06012KT 6SM RA BR SCT017 SCT023 OVC034 27/26 A2989 RMK AO2 RAB46 SLP120 P0002 60002 T02720256 10311 20272 53007

Get Severe Weather Alerts

Thanks for signing up!

Be on the lookout for a verification email in your inbox.

You'll start receiving the daily forecast at 6 AM.

×

10-Day Weather Forecast

Almanac

Astronomy

Aug. 19, 2017 Rise Set
Actual Time
Civil Twilight
Nautical Twilight
Astronomical Twilight
Moon
Length of Visible Light
Length of Day
Tomorrow will be .
, % of the Moon is Illuminated

Today's Extremes

State Highs State Lows

Community

WunderPhotos

Category 6

Welcome to Category 6. This is the collective home for Weather Underground's featured writeups by Dr. Jeff Masters (right), Bob Henson (left), Chris Burt, and other regular contributors.

Nearby

Air Quality

  Air Quality AQ Index Pollutant
Not available.

Snow Depth

Station Depth Elevation

Earthquake Activity

City Distance Mag. Time & Date
Minimum magnitude displayed is 2.5.

Coastal Water Temperatures

Place Temperature

Stations

Nearby Weather Stations

Station Location Temp. Windchill Dew Point Humidity Wind Precip. Elev Updated Type
                   

Watches & Warnings

There are currently no watches in effect.